Oxnard Airport
KOXR : now visible

Airfield :











YOU CAN JOIN US ON...

 
LOGIN :

Register | Disclaimer

   EN    FR    IT 

 









Legend :    VFR   Marginal VFR   IFR   Intensive IFR   Very Intensive IFR
Visi :
Ceiling :
>= 8 km
>= 3000ft
5 to 8 km
1000 to 3000 ft
1500m to 5 km
500 to 1000 ft
800 to 1500m
200 to 500 ft
< 800m
< 200 ft
Symbols :   Thunderstorms  Fog  Heavy snow  Heavy precipitations  Wind > 20 kt






- Airport Elevation : 45 ft


KOXR - Oxnard

CURRENT METAR :
  • 092351Z 07010KT 7SM -RA BKN050 OVC065 11/09 A3006 RMK AO2 SLP177 P0005 60046 T01110089 10117 20111 56009

EXPIRED METARs :
  • 092315Z 07008KT 7SM -RA FEW021 SCT030 OVC060 11/09 A3006 RMK AO2 P0002 T01110089
  • 092251Z 07007KT 5SM RA BR SCT019 BKN026 OVC035 11/09 A3006 RMK AO2 SLP179 P0009 T01110094
  • 092158Z 10009KT 6SM RA BR SCT012 BKN019 OVC026 12/10 A3007 RMK AO2 P0001 T01170100
  • 092151Z 11008KT 6SM -RA BR FEW015 OVC033 12/10 A3007 RMK AO2 SLP182 P0017 T01170100

TAF KOXR
Valid from the 10 at 00:00 until the 11 at 00:00 UTC


092337Z 1000/1024 07008KT P6SM -RA SCT025 OVC040
FM100300 08006KT 5SM -RA BR BKN025 OVC040
FM101000 06008KT P6SM VCSH SCT025 OVC050
FM101800 09010KT P6SM BKN050
FM102100 24012KT P6SM BKN100



MET'MAP, your aeronautical weather chart ! - Copyright ORBIFLY December 2007 - Disclaimer

ORBIFLY MET'MAP TEAM :

Programming & Development : Alexandra Zaïnal
Concept & original design : Baudouin d'Aumeries
Assistance for programming : Marc-Olivier Méhu
Technical & hardware support : Manuel Goepfert

Contact : metmap@orbifly.com




SOURCES & CREDITS :

   NOAA       Earth
Advisory